Time;durP1;ratioP1;P1;durP2;ratioP2;P2;SDS_P1;SDS_P2;PMS_P1;PMS_P2;Temp;Humidity;BMP_temperature;BMP_pressure;BME280_temperature;BME280_humidity;BME280_pressure;Samples;Min_cycle;Max_cycle;Signal;HPM_P1;HPM_P2
2022/12/12 00:01:28;;;;;;;4.45;3.00;;;11.50;61.60;;;;;;5053097;28;20447;-77
2022/12/12 00:03:54;;;;;;;3.53;2.63;;;11.50;61.50;;;;;;5051856;28;20059;-77
2022/12/12 00:06:20;;;;;;;4.97;2.75;;;11.50;61.40;;;;;;5053129;28;20048;-77
2022/12/12 00:08:46;;;;;;;3.80;2.97;;;11.60;61.50;;;;;;5053246;28;20104;-77
2022/12/12 00:11:12;;;;;;;3.90;2.83;;;11.60;61.50;;;;;;5051354;28;20590;-77
2022/12/12 00:13:38;;;;;;;3.40;2.97;;;11.60;61.50;;;;;;5051615;28;20056;-77
2022/12/12 00:16:06;;;;;;;3.65;2.85;;;11.50;61.40;;;;;;5051578;28;20052;-77
2022/12/12 00:18:32;;;;;;;3.17;2.88;;;11.50;61.50;;;;;;5051533;28;20491;-77
2022/12/12 00:20:58;;;;;;;3.53;3.10;;;11.50;61.40;;;;;;5051426;28;20504;-77
2022/12/12 00:23:24;;;;;;;4.93;2.88;;;11.50;61.40;;;;;;5052690;28;20029;-77
2022/12/12 00:25:58;;;;;;;2.85;2.40;;;11.50;61.40;;;;;;5052426;28;20500;-77
2022/12/12 00:28:24;;;;;;;3.30;2.92;;;11.50;61.40;;;;;;5052658;28;20083;-77
2022/12/12 00:30:50;;;;;;;5.15;3.25;;;11.60;76.10;;;;;;5051290;28;20024;-77
2022/12/12 00:33:16;;;;;;;3.40;2.95;;;11.50;61.40;;;;;;5052573;28;20100;-77
2022/12/12 00:35:42;;;;;;;3.70;2.80;;;11.50;61.30;;;;;;5051276;28;20492;-77
2022/12/12 00:38:08;;;;;;;5.18;3.38;;;11.50;61.30;;;;;;5052439;28;20105;-77
2022/12/12 00:40:34;;;;;;;3.80;2.70;;;11.50;61.30;;;;;;5052534;28;20036;-77
2022/12/12 00:43:00;;;;;;;3.25;2.90;;;11.50;61.30;;;;;;5051099;28;20032;-77
2022/12/12 00:45:26;;;;;;;3.03;2.22;;;11.50;61.30;;;;;;5051189;28;20017;-77
2022/12/12 00:47:51;;;;;;;3.17;2.55;;;11.50;61.30;;;;;;5051002;28;20039;-77
2022/12/12 00:50:18;;;;;;;3.78;2.80;;;11.50;61.20;;;;;;5051061;28;20021;-77
2022/12/12 00:52:43;;;;;;;3.70;2.75;;;11.50;61.10;;;;;;5052316;28;20383;-77
2022/12/12 00:55:11;;;;;;;3.28;2.90;;;11.50;61.10;;;;;;5052201;28;20127;-77
2022/12/12 00:57:37;;;;;;;4.53;3.13;;;11.50;61.10;;;;;;5052239;28;20033;-77
2022/12/12 01:00:05;;;;;;;4.30;3.08;;;11.50;61.00;;;;;;5052086;28;20013;-77
2022/12/12 01:02:30;;;;;;;4.05;2.60;;;11.50;61.00;;;;;;5052093;28;20384;-77
2022/12/12 01:04:56;;;;;;;3.35;2.97;;;11.50;61.00;;;;;;5052068;28;20024;-77
2022/12/12 01:07:22;;;;;;;3.78;2.60;;;11.50;60.90;;;;;;5050856;28;20025;-77
2022/12/12 01:09:48;;;;;;;3.47;2.80;;;11.50;60.90;;;;;;5051995;28;20025;-77
2022/12/12 01:12:13;;;;;;;3.25;2.78;;;11.50;60.90;;;;;;5051981;28;20045;-77
2022/12/12 01:14:39;;;;;;;3.33;2.88;;;11.50;60.80;;;;;;5050745;28;20388;-77
2022/12/12 01:17:05;;;;;;;3.25;2.65;;;11.50;60.80;;;;;;5050749;28;20124;-77
2022/12/12 01:19:30;;;;;;;4.85;2.78;;;11.50;60.90;;;;;;5050761;28;20035;-77
2022/12/12 01:21:56;;;;;;;4.80;3.08;;;11.50;60.80;;;;;;5051909;28;20037;-77
2022/12/12 01:24:21;;;;;;;4.05;2.95;;;11.50;60.80;;;;;;5051969;28;20566;-77
2022/12/12 01:26:47;;;;;;;3.40;2.92;;;11.40;60.80;;;;;;5051988;28;20025;-77
2022/12/12 01:29:13;;;;;;;3.05;2.60;;;11.40;60.70;;;;;;5051885;28;20151;-77
2022/12/12 01:31:38;;;;;;;2.88;2.40;;;11.40;60.70;;;;;;5051968;28;20033;-77
2022/12/12 01:34:04;;;;;;;3.72;3.22;;;11.40;60.70;;;;;;5050577;28;20471;-77
2022/12/12 01:36:30;;;;;;;4.47;3.28;;;11.50;60.60;;;;;;5051947;28;20111;-77
2022/12/12 01:38:56;;;;;;;4.35;3.30;;;11.40;60.50;;;;;;5052509;28;20100;-77
2022/12/12 01:41:23;;;;;;;3.92;2.97;;;11.40;60.50;;;;;;5055669;28;20025;-77
2022/12/12 01:43:49;;;;;;;4.80;3.13;;;11.40;60.50;;;;;;5054526;28;20062;-77
2022/12/12 01:46:20;;;;;;;3.03;2.75;;;11.40;60.40;;;;;;5054356;28;20032;-77
2022/12/12 01:48:53;;;;;;;3.10;2.70;;;11.40;60.40;;;;;;5054321;28;20060;-77
2022/12/12 01:51:23;;;;;;;3.40;2.88;;;11.40;60.40;;;;;;5055473;28;20036;-77
2022/12/12 01:53:53;;;;;;;4.13;3.17;;;11.40;60.40;;;;;;5055658;28;20075;-77
2022/12/12 01:56:20;;;;;;;3.10;2.80;;;11.40;60.40;;;;;;5055497;28;20044;-77
2022/12/12 01:58:48;;;;;;;3.65;3.00;;;11.40;60.30;;;;;;5054239;28;20017;-77
2022/12/12 02:01:15;;;;;;;3.47;3.17;;;11.40;60.30;;;;;;5054136;28;20387;-77
2022/12/12 02:03:42;;;;;;;3.58;3.00;;;11.40;60.30;;;;;;5055325;28;20479;-77
2022/12/12 02:06:16;;;;;;;3.35;2.67;;;11.40;60.20;;;;;;5054064;28;20017;-77
2022/12/12 02:08:43;;;;;;;5.35;3.60;;;11.40;60.20;;;;;;5055384;28;20387;-77
2022/12/12 02:11:09;;;;;;;4.97;3.53;;;11.40;60.20;;;;;;5053752;28;20470;-77
2022/12/12 02:13:35;;;;;;;3.50;3.15;;;11.40;60.20;;;;;;5055152;28;20104;-76
2022/12/12 02:16:24;;;;;;;4.97;3.38;;;11.40;60.20;;;;;;5055164;28;20017;-77
2022/12/12 02:18:54;;;;;;;3.45;2.92;;;11.30;60.10;;;;;;5053856;28;20020;-76
2022/12/12 02:21:20;;;;;;;4.80;3.25;;;11.40;60.10;;;;;;5053694;28;20037;-77
2022/12/12 02:24:31;;;;;;;4.90;3.40;;;11.30;60.10;;;;;;5055074;28;20521;-77
2022/12/12 02:27:41;;;;;;;4.25;3.38;;;11.30;60.00;;;;;;5054980;28;20029;-77
2022/12/12 02:30:15;;;;;;;4.82;3.60;;;11.30;59.50;;;;;;5053687;28;20032;-76
2022/12/12 02:32:59;;;;;;;3.90;3.42;;;11.30;60.00;;;;;;5054954;28;20107;-77
2022/12/12 02:36:05;;;;;;;4.53;3.42;;;11.30;60.00;;;;;;5054813;28;20024;-77
2022/12/12 02:38:55;;;;;;;4.75;3.20;;;11.30;60.00;;;;;;5024821;28;20044;-77
2022/12/12 02:42:01;;;;;;;5.40;3.80;;;11.30;60.00;;;;;;5053406;28;20021;-77
2022/12/12 02:44:37;;;;;;;4.47;3.30;;;11.30;60.00;;;;;;5054190;28;20033;-77
2022/12/12 02:47:21;;;;;;;4.07;3.08;;;11.30;60.00;;;;;;5054911;28;20025;-77
2022/12/12 02:49:54;;;;;;;6.03;3.25;;;11.30;59.90;;;;;;5053309;28;20115;-77
2022/12/12 02:52:21;;;;;;;4.28;3.42;;;11.30;59.90;;;;;;5054497;28;20041;-77
2022/12/12 02:54:47;;;;;;;5.43;3.55;;;11.20;59.90;;;;;;5054586;28;20100;-77
2022/12/12 02:57:19;;;;;;;4.45;3.45;;;11.30;59.90;;;;;;5054422;28;20017;-76
2022/12/12 02:59:56;;;;;;;4.65;3.42;;;11.30;59.90;;;;;;5054454;28;20479;-77
2022/12/12 03:02:28;;;;;;;3.92;3.03;;;11.20;59.80;;;;;;5054354;28;20499;-77
2022/12/12 03:08:08;;;;;;;4.05;3.47;;;11.30;59.90;;;;;;5054503;28;20082;-78
2022/12/12 03:11:14;;;;;;;5.95;4.03;;;11.30;59.90;;;;;;5052508;28;20045;-77
2022/12/12 03:13:42;;;;;;;5.70;3.58;;;11.20;59.80;;;;;;4976154;28;20037;-77
2022/12/12 03:16:33;;;;;;;4.80;3.72;;;11.20;59.80;;;;;;5044507;28;20193;-77
2022/12/12 03:19:11;;;;;;;4.47;3.53;;;11.20;59.80;;;;;;5052851;28;20028;-77
2022/12/12 03:21:49;;;;;;;5.57;3.63;;;11.20;59.80;;;;;;5052619;28;20028;-77
2022/12/12 03:24:33;;;;;;;4.40;3.63;;;11.20;59.90;;;;;;5053970;28;20152;-77
2022/12/12 03:27:10;;;;;;;3.47;3.15;;;11.20;59.80;;;;;;5052573;28;20598;-77
2022/12/12 03:30:07;;;;;;;3.78;3.17;;;11.20;59.80;;;;;;5053892;28;20021;-76
2022/12/12 03:32:41;;;;;;;4.45;3.70;;;11.20;59.80;;;;;;5048986;28;20039;-77
2022/12/12 03:35:16;;;;;;;5.45;4.00;;;11.20;59.80;;;;;;5052579;28;20025;-77
2022/12/12 03:37:49;;;;;;;5.32;3.80;;;11.10;59.70;;;;;;5053738;28;20025;-77
2022/12/12 03:40:28;;;;;;;5.90;3.53;;;11.10;59.70;;;;;;5052474;28;20051;-77
2022/12/12 03:43:02;;;;;;;5.10;4.32;;;11.10;59.60;;;;;;5052314;28;20025;-77
2022/12/12 03:45:40;;;;;;;5.68;3.67;;;11.10;59.70;;;;;;5052365;28;20025;-76
2022/12/12 03:48:33;;;;;;;5.75;4.05;;;11.10;59.60;;;;;;5053479;28;20052;-77
2022/12/12 03:51:25;;;;;;;3.90;3.50;;;11.10;59.70;;;;;;5052190;28;20025;-77
2022/12/12 03:53:56;;;;;;;5.28;3.58;;;11.10;59.70;;;;;;5053377;28;20082;-77
2022/12/12 03:56:33;;;;;;;5.53;4.10;;;11.10;59.70;;;;;;5053300;28;20025;-77
2022/12/12 03:59:05;;;;;;;4.82;3.67;;;11.10;59.70;;;;;;5053321;28;20025;-77
2022/12/12 04:01:38;;;;;;;5.60;3.78;;;11.00;59.70;;;;;;5051278;28;20376;-77
2022/12/12 04:04:18;;;;;;;5.97;3.67;;;11.00;59.60;;;;;;5051915;28;20025;-77
2022/12/12 04:07:09;;;;;;;6.93;4.75;;;11.00;59.70;;;;;;5051856;28;20021;-77
2022/12/12 04:13:02;;;;;;;5.32;4.35;;;11.00;59.70;;;;;;5053065;28;20088;-77
2022/12/12 04:15:50;;;;;;;4.60;3.70;;;11.00;59.70;;;;;;5053003;28;20154;-76
2022/12/12 04:18:24;;;;;;;5.63;4.18;;;11.00;59.70;;;;;;5052936;28;20036;-77
2022/12/12 04:24:17;;;;;;;5.38;3.95;;;11.00;59.70;;;;;;5053086;28;20048;-78
2022/12/12 04:26:43;;;;;;;5.70;4.25;;;;;;;;;;5052690;28;20032;-77
2022/12/12 04:29:17;;;;;;;6.03;4.07;;;10.90;59.20;;;;;;5052734;28;20021;-77
2022/12/12 04:32:15;;;;;;;5.57;4.10;;;10.90;59.70;;;;;;5052657;28;20017;-77
2022/12/12 04:34:51;;;;;;;5.35;4.00;;;10.90;59.70;;;;;;5046963;28;20446;-77
2022/12/12 04:37:27;;;;;;;5.47;3.72;;;10.90;59.80;;;;;;5052574;28;20021;-77
2022/12/12 04:39:58;;;;;;;4.28;3.75;;;10.90;59.70;;;;;;5052556;28;20033;-76
2022/12/12 04:42:29;;;;;;;4.70;3.88;;;10.90;59.70;;;;;;5051213;28;20036;-77
2022/12/12 04:45:01;;;;;;;6.32;4.57;;;10.90;59.60;;;;;;5051223;28;20025;-77
2022/12/12 04:47:30;;;;;;;4.90;3.60;;;10.90;59.70;;;;;;5052422;28;20099;-77
2022/12/12 04:49:57;;;;;;;5.22;4.10;;;11.00;59.70;;;;;;5051088;28;20554;-77
2022/12/12 04:52:24;;;;;;;6.07;3.88;;;11.00;59.70;;;;;;5051082;28;20049;-77
2022/12/12 04:54:53;;;;;;;4.55;4.10;;;10.90;59.60;;;;;;5051030;28;20447;-77
2022/12/12 04:57:29;;;;;;;4.95;3.47;;;10.90;59.60;;;;;;5052393;28;20497;-77
2022/12/12 04:59:54;;;;;;;7.25;3.90;;;10.90;59.60;;;;;;5052283;28;20109;-77
2022/12/12 05:05:52;;;;;;;6.65;4.13;;;11.00;59.60;;;;;;5059557;28;20032;-77
2022/12/12 05:08:26;;;;;;;5.00;3.88;;;10.90;59.50;;;;;;5052240;28;20471;-77
2022/12/12 05:10:55;;;;;;;6.47;4.45;;;10.90;59.60;;;;;;5051045;28;20048;-77
2022/12/12 05:13:26;;;;;;;6.20;4.47;;;10.90;59.60;;;;;;5053247;28;20083;-77
2022/12/12 05:15:54;;;;;;;4.53;3.78;;;10.90;59.60;;;;;;5056466;28;20017;-77
2022/12/12 05:18:21;;;;;;;5.45;4.00;;;10.90;59.60;;;;;;5055081;28;20047;-77
2022/12/12 05:20:47;;;;;;;5.63;4.15;;;10.90;59.60;;;;;;5055082;28;20048;-77
2022/12/12 05:23:13;;;;;;;4.57;3.58;;;9.80;59.00;;;;;;5056487;28;20033;-78
2022/12/12 05:25:38;;;;;;;5.53;3.92;;;10.90;59.60;;;;;;5056197;28;20021;-78
2022/12/12 05:28:04;;;;;;;4.65;3.63;;;10.90;60.20;;;;;;5054839;28;20068;-77
2022/12/12 05:30:31;;;;;;;5.45;4.10;;;10.90;59.50;;;;;;5056100;28;20017;-77
2022/12/12 05:32:56;;;;;;;5.47;4.45;;;10.90;59.50;;;;;;5056145;28;20487;-77
2022/12/12 05:35:22;;;;;;;5.20;3.67;;;10.70;74.00;;;;;;5056114;28;20051;-77
2022/12/12 05:37:48;;;;;;;6.55;4.28;;;10.90;59.60;;;;;;5055928;28;20478;-77
2022/12/12 05:40:14;;;;;;;5.70;4.32;;;10.90;59.50;;;;;;5056010;28;20029;-77
2022/12/12 05:42:40;;;;;;;5.00;3.80;;;10.80;59.50;;;;;;5054471;28;20048;-77
2022/12/12 05:45:07;;;;;;;5.25;4.25;;;10.90;59.50;;;;;;5055810;28;20530;-77
2022/12/12 05:47:33;;;;;;;7.15;3.90;;;10.90;59.60;;;;;;5056046;28;20368;-77
2022/12/12 05:49:59;;;;;;;6.05;3.97;;;10.80;59.50;;;;;;5054460;28;20088;-77
2022/12/12 05:52:25;;;;;;;4.85;4.07;;;10.90;59.60;;;;;;5054420;28;20033;-78
2022/12/12 05:54:50;;;;;;;5.53;4.03;;;10.70;73.60;;;;;;5055591;28;20549;-77
2022/12/12 05:57:17;;;;;;;4.82;4.30;;;10.80;59.40;;;;;;5054369;28;20036;-77
2022/12/12 05:59:44;;;;;;;6.50;4.32;;;10.80;59.50;;;;;;5054324;28;20407;-77
2022/12/12 06:02:10;;;;;;;4.78;4.00;;;10.80;59.40;;;;;;5053898;28;20132;-77
2022/12/12 06:04:35;;;;;;;6.60;4.10;;;10.80;59.40;;;;;;5055724;28;20063;-77
2022/12/12 11:45:13;;;;;;;3.95;3.55;;;12.60;56.70;;;;;;5033663;28;20137;-78
2022/12/12 12:34:20;;;;;;;5.05;4.25;;;13.30;56.60;;;;;;5032755;28;20068;-80
2022/12/12 12:37:23;;;;;;;5.22;4.10;;;13.30;56.60;;;;;;5031441;28;20033;-80
2022/12/12 12:40:22;;;;;;;4.40;3.90;;;13.30;56.80;;;;;;5032640;28;20028;-79
2022/12/12 12:43:06;;;;;;;4.72;4.15;;;13.40;57.40;;;;;;5031289;28;20033;-76
2022/12/12 12:52:50;;;;;;;4.38;3.90;;;13.50;56.80;;;;;;5031612;28;20179;-78
2022/12/12 12:55:19;;;;;;;4.22;3.80;;;13.50;56.70;;;;;;5031180;28;20065;-77
2022/12/12 13:08:34;;;;;;;5.07;4.03;;;13.60;56.80;;;;;;5031703;28;20125;-77
2022/12/12 13:11:22;;;;;;;12.23;4.80;;;13.60;56.60;;;;;;5030948;28;20022;-77
2022/12/12 13:13:50;;;;;;;4.85;4.03;;;13.70;70.70;;;;;;5030962;28;20017;-77
2022/12/12 13:23:46;;;;;;;5.53;4.47;;;13.70;70.50;;;;;;5031225;28;20040;-77
2022/12/12 13:26:11;;;;;;;5.97;4.00;;;13.70;56.80;;;;;;5030846;28;20026;-77
2022/12/12 14:46:15;;;;;;;5.47;3.95;;;13.50;58.80;;;;;;5034241;28;20586;-76
2022/12/12 16:20:12;;;;;;;4.00;3.13;;;13.00;59.30;;;;;;5052465;28;20368;-76
2022/12/12 21:03:51;;;;;;;7.00;4.32;;;11.50;55.80;;;;;;4991093;28;20065;-77
2022/12/12 21:06:22;;;;;;;5.13;3.88;;;11.00;57.70;;;;;;4991666;28;20042;-77
2022/12/12 21:08:49;;;;;;;5.80;4.38;;;11.50;56.50;;;;;;4975445;28;20033;-78
2022/12/12 21:11:18;;;;;;;6.53;4.15;;;11.50;55.90;;;;;;4992694;28;20102;-77
2022/12/12 21:13:44;;;;;;;5.38;3.80;;;11.50;55.80;;;;;;4992732;28;20030;-77
2022/12/12 21:16:18;;;;;;;9.10;4.30;;;11.40;55.90;;;;;;4992662;28;20037;-78
2022/12/12 21:18:48;;;;;;;17.80;3.72;;;11.40;55.80;;;;;;4975226;28;20445;-77
2022/12/12 21:21:14;;;;;;;21.48;4.85;;;11.50;57.50;;;;;;4992890;28;20026;-78
2022/12/12 21:23:40;;;;;;;20.90;5.25;;;11.60;57.30;;;;;;4992504;28;20057;-77
2022/12/12 21:26:10;;;;;;;26.67;6.15;;;11.60;56.00;;;;;;4975504;28;20480;-77
2022/12/12 21:28:36;;;;;;;26.83;6.40;;;11.50;55.60;;;;;;4992616;28;20105;-78
2022/12/12 21:31:05;;;;;;;26.90;6.43;;;11.40;55.70;;;;;;4991334;28;20019;-78
2022/12/12 21:33:31;;;;;;;15.52;6.07;;;11.40;56.00;;;;;;4975125;28;20026;-77
2022/12/12 21:36:03;;;;;;;18.02;6.70;;;11.30;55.80;;;;;;4992542;28;20081;-77
2022/12/12 21:38:28;;;;;;;16.42;6.72;;;11.50;56.20;;;;;;4975096;28;20030;-77
2022/12/12 21:40:54;;;;;;;25.55;7.60;;;11.30;55.70;;;;;;4975114;28;20022;-80
2022/12/12 21:43:20;;;;;;;18.42;8.48;;;11.30;56.00;;;;;;4974946;28;20482;-78
2022/12/12 21:45:45;;;;;;;17.70;10.38;;;11.10;55.80;;;;;;4992535;28;20488;-80
2022/12/12 21:48:11;;;;;;;19.25;9.60;;;11.30;56.00;;;;;;4975021;28;20031;-80
2022/12/12 21:50:37;;;;;;;14.60;9.23;;;11.20;56.30;;;;;;4974948;28;20468;-79
2022/12/12 21:55:47;;;;;;;16.83;9.40;;;11.20;56.20;;;;;;4994401;28;20045;-77
2022/12/12 21:58:12;;;;;;;17.05;10.18;;;11.50;70.30;;;;;;4994922;28;20027;-77
2022/12/12 22:00:39;;;;;;;16.13;10.45;;;11.20;56.20;;;;;;4978907;28;20069;-77
2022/12/12 22:03:05;;;;;;;16.63;9.60;;;11.30;56.50;;;;;;4994585;28;20038;-77
2022/12/12 22:05:31;;;;;;;14.15;10.35;;;11.30;56.30;;;;;;4996045;28;20026;-77
2022/12/12 22:07:57;;;;;;;20.55;11.32;;;11.40;56.10;;;;;;4978487;28;20022;-77
2022/12/12 22:10:23;;;;;;;15.20;10.38;;;11.30;55.80;;;;;;4994597;28;20064;-77
2022/12/12 22:12:49;;;;;;;14.77;11.05;;;11.20;55.90;;;;;;4994692;28;20026;-77
2022/12/12 22:15:15;;;;;;;14.40;9.95;;;11.10;69.80;;;;;;4995901;28;20097;-77
2022/12/12 22:17:40;;;;;;;14.68;10.70;;;11.10;56.40;;;;;;4995737;28;20045;-77
2022/12/12 22:20:06;;;;;;;15.15;10.52;;;11.10;56.50;;;;;;4994608;28;20022;-77
2022/12/12 22:22:32;;;;;;;18.63;9.98;;;11.50;70.70;;;;;;4994507;28;20026;-77
2022/12/12 22:24:58;;;;;;;12.75;9.40;;;11.10;56.80;;;;;;4994416;28;20029;-78
2022/12/12 22:27:23;;;;;;;12.50;8.93;;;11.10;56.80;;;;;;4995728;28;20029;-78
2022/12/12 22:29:49;;;;;;;14.52;9.60;;;11.10;56.80;;;;;;4994328;28;20037;-78
2022/12/12 22:32:14;;;;;;;13.77;9.85;;;11.10;56.90;;;;;;4994642;28;20109;-78
2022/12/12 22:34:40;;;;;;;12.40;9.15;;;11.10;56.90;;;;;;4995433;28;20527;-78
2022/12/12 22:37:05;;;;;;;13.40;8.75;;;11.20;56.90;;;;;;4995795;28;20064;-78
2022/12/12 22:39:31;;;;;;;12.27;8.93;;;11.10;70.50;;;;;;4977971;28;20412;-78
2022/12/12 22:41:57;;;;;;;11.27;7.82;;;11.10;56.90;;;;;;4995281;28;20027;-78
2022/12/12 22:44:24;;;;;;;10.95;7.88;;;11.20;57.00;;;;;;4994087;28;20493;-78
2022/12/12 22:46:51;;;;;;;14.18;8.85;;;11.20;57.00;;;;;;4994045;28;20031;-78
2022/12/12 22:49:19;;;;;;;11.23;7.78;;;11.20;57.60;;;;;;4977589;28;20027;-78
2022/12/12 22:51:46;;;;;;;11.45;7.45;;;11.20;57.00;;;;;;4977725;28;20404;-78
2022/12/12 22:54:12;;;;;;;12.27;7.47;;;11.20;57.00;;;;;;4977606;28;20018;-77
2022/12/12 22:56:39;;;;;;;13.50;8.45;;;11.20;57.10;;;;;;4993801;28;20022;-77
2022/12/12 22:59:06;;;;;;;12.05;7.70;;;11.20;57.10;;;;;;4995161;28;20038;-77
2022/12/12 23:01:32;;;;;;;8.95;7.13;;;11.20;57.20;;;;;;4977340;28;20042;-77
2022/12/12 23:03:58;;;;;;;10.38;7.65;;;11.30;57.20;;;;;;4994781;28;20558;-77
2022/12/12 23:06:28;;;;;;;8.63;6.50;;;11.20;57.10;;;;;;4994700;28;20030;-77
2022/12/12 23:09:19;;;;;;;10.38;6.97;;;11.20;57.10;;;;;;4977426;28;20446;-77
2022/12/12 23:11:45;;;;;;;10.32;6.47;;;11.20;57.10;;;;;;4986614;28;20023;-77
2022/12/12 23:14:13;;;;;;;10.45;6.97;;;11.20;57.10;;;;;;4993485;28;20037;-77
2022/12/12 23:16:39;;;;;;;10.15;6.57;;;11.20;57.00;;;;;;4977316;28;20524;-77
2022/12/12 23:19:07;;;;;;;9.60;6.60;;;11.20;57.00;;;;;;4994781;28;20058;-77
2022/12/12 23:21:34;;;;;;;8.35;6.15;;;11.30;57.10;;;;;;4994710;28;20034;-77
2022/12/12 23:24:00;;;;;;;8.50;6.38;;;11.20;57.10;;;;;;4977336;28;20034;-77
2022/12/12 23:26:29;;;;;;;8.10;5.90;;;11.20;57.10;;;;;;4977132;28;20081;-77
2022/12/12 23:28:58;;;;;;;7.95;5.80;;;11.20;57.00;;;;;;4977029;28;20058;-78
2022/12/12 23:31:27;;;;;;;6.20;5.03;;;11.20;56.90;;;;;;4994418;28;20030;-77
2022/12/12 23:33:55;;;;;;;7.63;5.43;;;11.30;56.90;;;;;;4993162;28;20023;-77
2022/12/12 23:36:21;;;;;;;8.23;5.68;;;11.10;70.80;;;;;;4976932;28;20046;-77
2022/12/12 23:38:47;;;;;;;7.30;5.95;;;11.30;56.90;;;;;;4992991;28;20068;-77
2022/12/12 23:41:15;;;;;;;7.97;5.80;;;11.30;56.90;;;;;;4993039;28;20038;-77
2022/12/12 23:43:42;;;;;;;7.13;5.32;;;11.20;57.50;;;;;;4992954;28;20040;-77
2022/12/12 23:48:55;;;;;;;8.98;5.78;;;11.20;56.80;;;;;;4994460;28;20040;-77
2022/12/12 23:51:22;;;;;;;6.95;4.78;;;11.30;56.80;;;;;;4992903;28;20117;-77
2022/12/12 23:53:48;;;;;;;6.45;5.07;;;11.30;56.60;;;;;;4992863;28;20022;-77
2022/12/12 23:56:14;;;;;;;6.20;5.10;;;11.40;56.60;;;;;;4994020;28;20031;-77
2022/12/12 23:58:40;;;;;;;7.28;5.05;;;11.30;56.50;;;;;;4994223;28;20389;-77
